createdAt,value
2017-12-28T00:01:36.942Z,17.67
2017-12-28T00:04:04.498Z,14.50
2017-12-28T00:06:32.085Z,16.67
2017-12-28T00:08:59.571Z,15.80
2017-12-28T00:11:27.118Z,16.40
2017-12-28T00:13:54.649Z,15.07
2017-12-28T00:16:22.142Z,16.50
2017-12-28T00:18:49.690Z,15.80
2017-12-28T00:21:17.266Z,16.47
2017-12-28T00:23:44.819Z,14.87
2017-12-28T00:26:12.296Z,17.57
2017-12-28T00:28:39.813Z,15.40
2017-12-28T00:31:07.367Z,15.70
2017-12-28T00:33:34.848Z,15.50
2017-12-28T00:36:02.393Z,16.80
2017-12-28T00:38:29.875Z,16.30
2017-12-28T00:40:57.353Z,16.50
2017-12-28T00:43:24.942Z,16.83
2017-12-28T00:45:52.492Z,15.47
2017-12-28T00:48:19.973Z,15.47
2017-12-28T00:50:47.485Z,14.93
2017-12-28T00:53:14.979Z,16.67
2017-12-28T00:55:42.542Z,17.13
2017-12-28T00:58:10.053Z,15.63
2017-12-28T01:00:37.537Z,15.17
2017-12-28T01:03:05.086Z,15.00
2017-12-28T01:05:32.611Z,15.50
2017-12-28T01:08:00.154Z,16.67
2017-12-28T01:10:27.633Z,15.70
2017-12-28T01:12:55.206Z,15.57
2017-12-28T01:15:22.754Z,16.93
2017-12-28T01:17:50.229Z,13.03
2017-12-28T01:20:17.820Z,16.43
2017-12-28T01:22:45.308Z,18.07
2017-12-28T01:25:12.890Z,16.40
2017-12-28T01:27:40.466Z,17.20
2017-12-28T01:30:07.945Z,16.63
2017-12-28T01:32:35.499Z,16.73
2017-12-28T01:35:03.045Z,14.73
2017-12-28T01:37:30.552Z,16.40
2017-12-28T01:39:58.114Z,14.60
2017-12-28T01:42:25.699Z,15.17
2017-12-28T01:44:53.262Z,13.87
2017-12-28T01:47:20.745Z,15.50
2017-12-28T01:49:48.310Z,13.60
2017-12-28T01:52:15.858Z,13.67
2017-12-28T01:54:43.438Z,17.10
2017-12-28T01:57:10.997Z,16.93
2017-12-28T01:59:38.477Z,13.77
2017-12-28T02:02:05.992Z,15.00
2017-12-28T02:04:33.538Z,14.37
2017-12-28T02:07:01.057Z,14.53
2017-12-28T02:09:28.645Z,14.30
2017-12-28T02:11:56.129Z,16.10
2017-12-28T02:14:23.608Z,15.37
2017-12-28T02:16:51.206Z,14.13
2017-12-28T02:19:18.695Z,15.30
2017-12-28T02:21:46.166Z,13.80
2017-12-28T02:24:13.674Z,13.70
2017-12-28T02:26:41.162Z,14.80
2017-12-28T02:29:08.708Z,12.93
2017-12-28T02:31:36.221Z,15.10
2017-12-28T02:34:03.771Z,12.77
2017-12-28T02:36:31.249Z,12.80
2017-12-28T02:38:58.765Z,13.10
2017-12-28T02:41:26.308Z,13.70
2017-12-28T02:43:54.733Z,12.13
2017-12-28T02:46:22.258Z,13.53
2017-12-28T02:48:49.803Z,12.93
2017-12-28T02:51:17.352Z,12.77
2017-12-28T02:53:44.872Z,15.27
2017-12-28T02:56:12.356Z,13.63
2017-12-28T02:58:39.833Z,14.53
2017-12-28T03:01:07.415Z,14.50
2017-12-28T03:03:34.962Z,16.40
2017-12-28T03:06:02.507Z,13.67
2017-12-28T03:08:30.018Z,13.10
2017-12-28T03:10:57.571Z,13.07
2017-12-28T03:13:25.116Z,13.80
2017-12-28T03:15:52.637Z,12.67
2017-12-28T03:18:20.114Z,11.70
2017-12-28T03:20:47.659Z,13.53
2017-12-28T03:23:15.240Z,12.83
2017-12-28T03:25:42.798Z,12.50
2017-12-28T03:28:10.305Z,13.63
2017-12-28T03:30:37.883Z,14.30
2017-12-28T03:33:05.371Z,13.43
2017-12-28T03:35:32.926Z,11.50
2017-12-28T03:38:00.446Z,12.63
2017-12-28T03:40:27.982Z,11.37
2017-12-28T03:42:55.526Z,12.23
2017-12-28T03:45:23.111Z,11.73
2017-12-28T03:47:50.677Z,13.90
2017-12-28T03:50:18.231Z,12.90
2017-12-28T03:52:45.802Z,11.47
2017-12-28T03:55:13.281Z,11.33
2017-12-28T03:57:40.830Z,12.30
2017-12-28T04:00:08.345Z,11.60
2017-12-28T04:02:35.822Z,10.63
2017-12-28T04:05:03.378Z,11.87
2017-12-28T04:07:30.888Z,10.40
2017-12-28T04:09:58.434Z,13.67
2017-12-28T04:12:25.987Z,10.67
2017-12-28T04:14:53.491Z,9.60
2017-12-28T04:17:21.044Z,10.57
2017-12-28T04:19:48.595Z,10.73
2017-12-28T04:22:16.119Z,10.13
2017-12-28T04:24:43.668Z,11.13
2017-12-28T04:27:11.146Z,11.73
2017-12-28T04:29:38.657Z,11.73
2017-12-28T04:32:06.198Z,10.60
2017-12-28T04:34:33.674Z,11.37
2017-12-28T04:37:01.246Z,11.03
2017-12-28T04:39:28.728Z,12.23
2017-12-28T04:41:56.283Z,11.10
2017-12-28T04:44:23.792Z,11.57
2017-12-28T04:46:51.334Z,11.27
2017-12-28T04:49:18.809Z,10.27
2017-12-28T04:51:46.321Z,11.13
2017-12-28T04:54:13.801Z,12.17
2017-12-28T04:56:41.281Z,11.37
2017-12-28T04:59:08.786Z,9.07
2017-12-28T05:01:36.269Z,11.67
2017-12-28T05:04:03.737Z,9.83
2017-12-28T05:06:31.254Z,9.60
2017-12-28T05:08:58.804Z,11.83
2017-12-28T05:11:26.281Z,10.30
2017-12-28T05:13:53.850Z,10.97
2017-12-28T05:16:21.330Z,10.00
2017-12-28T05:18:48.804Z,10.10
2017-12-28T05:21:16.387Z,9.70
2017-12-28T05:23:43.926Z,9.97
2017-12-28T05:26:11.401Z,10.77
2017-12-28T05:28:38.909Z,8.97
2017-12-28T05:31:06.459Z,10.73
2017-12-28T05:33:34.007Z,8.23
2017-12-28T05:36:01.513Z,10.30
2017-12-28T05:38:29.058Z,10.03
2017-12-28T05:40:56.594Z,9.30
2017-12-28T05:43:24.178Z,12.00
2017-12-28T05:45:51.649Z,8.90
2017-12-28T05:48:19.199Z,9.53
2017-12-28T05:50:46.711Z,10.53
2017-12-28T05:53:14.258Z,11.60
2017-12-28T05:55:41.743Z,10.30
2017-12-28T05:58:09.249Z,9.23
2017-12-28T06:00:36.724Z,8.70
2017-12-28T06:03:04.267Z,9.63
2017-12-28T06:05:31.834Z,9.20
2017-12-28T06:07:59.309Z,9.80
2017-12-28T06:10:26.785Z,10.43
2017-12-28T06:12:54.363Z,8.67
2017-12-28T06:15:21.902Z,9.07
2017-12-28T06:17:49.450Z,9.13
2017-12-28T06:20:16.957Z,10.33
2017-12-28T06:22:44.449Z,11.00
2017-12-28T06:25:11.921Z,13.33
2017-12-28T06:27:39.445Z,12.33
2017-12-28T06:30:07.007Z,13.67
2017-12-28T06:32:34.559Z,13.90
2017-12-28T06:35:02.084Z,16.83
2017-12-28T06:37:29.562Z,11.67
2017-12-28T06:39:57.038Z,17.07
2017-12-28T06:42:24.561Z,28.13
2017-12-28T06:44:52.045Z,18.57
2017-12-28T06:47:19.587Z,14.87
2017-12-28T06:49:47.161Z,15.83
2017-12-28T06:52:14.720Z,12.37
2017-12-28T06:54:42.233Z,14.03
2017-12-28T06:57:09.785Z,18.23
2017-12-28T06:59:37.265Z,14.13
2017-12-28T07:02:04.781Z,18.23
2017-12-28T07:04:32.269Z,23.50
2017-12-28T07:06:59.750Z,24.07
2017-12-28T07:09:27.336Z,20.40
2017-12-28T07:11:54.825Z,21.07
2017-12-28T07:14:22.332Z,33.60
2017-12-28T07:16:49.853Z,22.70
2017-12-28T07:19:17.414Z,25.07
2017-12-28T07:21:44.893Z,20.73
2017-12-28T07:24:12.483Z,23.70
2017-12-28T07:26:39.976Z,19.57
2017-12-28T07:29:07.473Z,22.90
2017-12-28T07:31:35.058Z,24.40
2017-12-28T07:34:02.620Z,19.47
2017-12-28T07:36:30.105Z,24.10
2017-12-28T07:38:57.634Z,18.63
2017-12-28T07:41:25.117Z,20.97
2017-12-28T07:43:52.597Z,20.77
2017-12-28T07:46:20.186Z,20.70
2017-12-28T07:48:47.685Z,23.33
2017-12-28T07:51:15.251Z,18.20
2017-12-28T07:53:42.907Z,16.07
2017-12-28T07:56:10.417Z,19.47
2017-12-28T07:58:37.905Z,17.83
2017-12-28T08:01:05.417Z,18.23
2017-12-28T08:03:32.978Z,22.17
2017-12-28T08:06:00.537Z,22.10
2017-12-28T08:08:28.127Z,23.47
2017-12-28T08:10:55.621Z,17.73
2017-12-28T08:13:23.177Z,18.20
2017-12-28T08:15:50.693Z,16.77
2017-12-28T08:18:18.181Z,19.53
2017-12-28T08:20:45.730Z,17.63
2017-12-28T08:23:13.266Z,21.17
2017-12-28T08:25:40.823Z,16.53
2017-12-28T08:28:08.388Z,15.63
2017-12-28T08:30:35.922Z,27.37
2017-12-28T08:33:03.500Z,20.67
2017-12-28T08:35:31.064Z,25.60
2017-12-28T08:37:58.656Z,29.80
2017-12-28T08:40:26.158Z,33.33
2017-12-28T08:42:53.643Z,21.20
2017-12-28T08:45:21.246Z,21.97
2017-12-28T08:47:48.745Z,20.13
2017-12-28T08:50:16.304Z,22.77
2017-12-28T08:52:43.820Z,21.10
2017-12-28T08:55:11.315Z,22.83
2017-12-28T08:57:38.821Z,22.53
2017-12-28T09:00:06.348Z,20.93
2017-12-28T09:02:33.837Z,20.20
2017-12-28T09:05:01.328Z,22.13
2017-12-28T09:07:28.931Z,20.87
2017-12-28T09:09:56.491Z,23.57
2017-12-28T09:12:24.051Z,17.73
2017-12-28T09:14:51.569Z,23.50
2017-12-28T09:17:19.059Z,21.47
2017-12-28T09:19:46.607Z,25.13
2017-12-28T09:22:14.186Z,22.23
2017-12-28T09:24:41.677Z,26.98
2017-12-28T09:27:09.157Z,29.43
2017-12-28T09:29:36.747Z,30.23
2017-12-28T09:32:04.303Z,31.43
2017-12-28T09:34:31.850Z,23.47
2017-12-28T09:36:59.430Z,24.17
2017-12-28T09:39:26.912Z,24.37
2017-12-28T09:41:54.394Z,24.73
2017-12-28T09:44:21.971Z,22.70
2017-12-28T09:46:49.453Z,26.47
2017-12-28T09:49:16.937Z,23.47
2017-12-28T09:51:44.460Z,24.53
2017-12-28T09:54:12.006Z,24.03
2017-12-28T09:56:39.559Z,24.53
2017-12-28T09:59:07.134Z,20.40
2017-12-28T10:01:34.695Z,21.00
2017-12-28T10:04:02.180Z,19.63
2017-12-28T10:06:29.770Z,19.90
2017-12-28T10:08:57.315Z,23.70
2017-12-28T10:11:24.890Z,20.27
2017-12-28T10:13:52.466Z,19.97
2017-12-28T10:16:19.945Z,19.33
2017-12-28T10:18:47.502Z,20.03
2017-12-28T10:21:15.021Z,21.00
2017-12-28T10:23:42.503Z,22.30
2017-12-28T10:26:09.983Z,21.10
2017-12-28T10:28:37.503Z,18.37
2017-12-28T10:31:05.051Z,19.27
2017-12-28T10:33:32.538Z,21.33
2017-12-28T10:36:00.050Z,21.43
2017-12-28T10:38:27.599Z,18.87
2017-12-28T10:40:55.163Z,21.40
2017-12-28T10:43:22.746Z,22.93
2017-12-28T10:45:50.226Z,19.80
2017-12-28T10:48:17.707Z,19.20
2017-12-28T10:50:45.300Z,21.47
2017-12-28T10:53:12.846Z,22.83
2017-12-28T10:55:40.394Z,17.87
2017-12-28T10:58:07.984Z,18.57
2017-12-28T11:00:35.543Z,20.47
2017-12-28T11:03:03.061Z,21.33
2017-12-28T11:05:30.576Z,20.27
2017-12-28T11:07:58.150Z,22.00
2017-12-28T11:10:25.628Z,23.10
2017-12-28T11:12:53.140Z,18.70
2017-12-28T11:15:20.629Z,16.33
2017-12-28T11:17:48.109Z,21.17
2017-12-28T11:20:15.625Z,21.27
2017-12-28T11:22:43.179Z,19.80
2017-12-28T11:25:10.726Z,21.63
2017-12-28T11:27:38.315Z,21.63
2017-12-28T11:30:05.862Z,21.17
2017-12-28T11:32:33.428Z,24.13
2017-12-28T11:35:00.945Z,20.37
2017-12-28T11:37:28.434Z,18.43
2017-12-28T11:39:55.982Z,20.13
2017-12-28T11:42:23.558Z,19.87
2017-12-28T11:44:51.037Z,22.93
2017-12-28T11:47:18.591Z,21.43
2017-12-28T11:49:56.065Z,21.40
2017-12-28T11:52:23.619Z,21.60
2017-12-28T11:55:06.020Z,19.93
2017-12-28T11:57:37.575Z,20.83
2017-12-28T12:00:10.616Z,19.07
2017-12-28T12:02:41.057Z,19.70
2017-12-28T12:05:08.553Z,19.70
2017-12-28T12:07:46.063Z,22.17
2017-12-28T12:10:13.565Z,22.80
2017-12-28T12:12:41.049Z,21.67
2017-12-28T12:15:08.634Z,20.57
2017-12-28T12:17:36.115Z,21.03
2017-12-28T12:20:03.678Z,26.60
2017-12-28T12:22:31.196Z,18.67
2017-12-28T12:24:58.747Z,23.07
2017-12-28T12:27:26.226Z,21.20
2017-12-28T12:29:53.807Z,18.17
2017-12-28T12:32:21.290Z,19.07
2017-12-28T12:34:48.770Z,22.73
2017-12-28T12:37:16.354Z,20.33
2017-12-28T12:39:43.907Z,20.20
2017-12-28T12:42:11.454Z,19.20
2017-12-28T12:44:39.034Z,23.03
2017-12-28T12:47:06.517Z,20.67
2017-12-28T12:49:34.071Z,19.80
2017-12-28T12:52:01.585Z,20.67
2017-12-28T12:54:29.131Z,19.80
2017-12-28T12:56:56.677Z,20.60
2017-12-28T12:59:24.250Z,20.93
2017-12-28T13:01:51.733Z,19.90
2017-12-28T13:04:19.217Z,22.90
2017-12-28T13:06:46.819Z,19.33
2017-12-28T13:09:14.297Z,20.90
2017-12-28T13:11:41.858Z,18.10
2017-12-28T13:14:09.436Z,17.27
2017-12-28T13:16:36.998Z,18.47
2017-12-28T13:19:04.555Z,21.23
2017-12-28T13:21:32.073Z,19.20
2017-12-28T13:23:59.557Z,24.17
2017-12-28T13:26:27.102Z,19.00
2017-12-28T13:28:54.687Z,23.87
2017-12-28T13:31:22.169Z,31.27
2017-12-28T13:33:49.655Z,21.07
2017-12-28T13:36:17.240Z,24.70
2017-12-28T13:38:44.725Z,24.40
2017-12-28T13:41:12.205Z,29.63
2017-12-28T13:43:39.719Z,22.07
2017-12-28T13:46:07.270Z,20.00
2017-12-28T13:48:34.821Z,18.23
2017-12-28T13:51:02.342Z,18.63
2017-12-28T13:53:29.821Z,24.27
2017-12-28T13:55:57.306Z,20.33
2017-12-28T13:58:24.831Z,21.50
2017-12-28T14:00:52.313Z,20.70
2017-12-28T14:03:19.863Z,17.43
2017-12-28T14:05:47.454Z,24.23
2017-12-28T14:08:15.011Z,20.27
2017-12-28T14:10:42.567Z,23.17
2017-12-28T14:13:10.118Z,21.13
2017-12-28T14:15:37.679Z,17.63
2017-12-28T14:18:05.226Z,17.43
2017-12-28T14:20:32.811Z,22.10
2017-12-28T14:23:00.368Z,20.40
2017-12-28T14:25:27.918Z,23.43
2017-12-28T14:27:55.503Z,15.80
2017-12-28T14:30:22.989Z,19.10
2017-12-28T14:32:50.477Z,16.70
2017-12-28T14:35:18.076Z,20.83
2017-12-28T14:37:45.570Z,37.73
2017-12-28T14:40:13.099Z,19.83
2017-12-28T14:42:40.681Z,22.77
2017-12-28T14:45:08.264Z,20.10
2017-12-28T14:47:35.757Z,16.50
2017-12-28T14:50:03.344Z,19.37
2017-12-28T14:52:30.837Z,19.00
2017-12-28T14:54:58.390Z,19.47
2017-12-28T14:57:25.987Z,20.13
2017-12-28T14:59:53.546Z,17.73
2017-12-28T15:02:21.098Z,17.63
2017-12-28T15:04:48.655Z,23.13
2017-12-28T15:07:16.137Z,19.47
2017-12-28T15:09:43.666Z,21.27
2017-12-28T15:12:11.161Z,21.47
2017-12-28T15:14:38.648Z,23.63
2017-12-28T15:17:06.181Z,28.97
2017-12-28T15:19:33.694Z,21.90
2017-12-28T15:22:01.251Z,21.07
2017-12-28T15:24:28.849Z,23.03
2017-12-28T15:26:56.353Z,24.80
2017-12-28T15:29:23.841Z,28.33
2017-12-28T15:31:51.369Z,25.63
2017-12-28T15:34:18.923Z,24.90
2017-12-28T15:36:46.497Z,20.97
2017-12-28T15:39:14.087Z,29.67
2017-12-28T15:41:41.650Z,21.60
2017-12-28T15:44:09.220Z,24.87
2017-12-28T15:46:36.799Z,24.80
2017-12-28T15:49:04.294Z,29.30
2017-12-28T15:51:31.855Z,20.93
2017-12-28T15:53:59.414Z,20.03
2017-12-28T15:56:26.966Z,23.97
2017-12-28T15:58:54.453Z,31.03
2017-12-28T16:01:22.030Z,35.70
2017-12-28T16:03:49.513Z,29.00
2017-12-28T16:06:17.002Z,32.33
2017-12-28T16:08:44.578Z,36.17
2017-12-28T16:11:12.129Z,33.90
2017-12-28T16:13:39.691Z,29.30
2017-12-28T16:16:07.202Z,38.10
2017-12-28T16:18:34.759Z,33.13
2017-12-28T16:21:02.244Z,26.87
2017-12-28T16:23:29.773Z,26.97
2017-12-28T16:25:57.338Z,25.30
2017-12-28T16:28:24.822Z,29.67
2017-12-28T16:30:52.337Z,36.60
2017-12-28T16:33:19.817Z,28.67
2017-12-28T16:35:47.384Z,31.70
2017-12-28T16:38:14.967Z,33.80
2017-12-28T16:40:42.523Z,32.93
2017-12-28T16:43:10.074Z,41.67
2017-12-28T16:45:37.605Z,41.07
2017-12-28T16:48:05.098Z,41.13
2017-12-28T16:50:32.650Z,45.70
2017-12-28T16:53:00.161Z,37.67
2017-12-28T16:55:28.831Z,41.93
2017-12-28T16:57:56.389Z,34.90
2017-12-28T17:00:23.982Z,37.70
2017-12-28T17:02:51.474Z,36.80
2017-12-28T17:05:18.957Z,37.13
2017-12-28T17:07:46.564Z,37.97
2017-12-28T17:10:14.123Z,36.33
2017-12-28T17:12:41.608Z,50.77
2017-12-28T17:15:09.190Z,56.97
2017-12-28T17:17:36.673Z,55.03
2017-12-28T17:20:04.186Z,48.17
2017-12-28T17:22:31.706Z,57.83
2017-12-28T17:24:59.211Z,101.03
2017-12-28T17:27:26.767Z,85.63
2017-12-28T17:29:54.377Z,78.33
2017-12-28T17:32:21.953Z,73.27
2017-12-28T17:34:49.453Z,61.33
2017-12-28T17:37:17.049Z,52.77
2017-12-28T17:39:44.542Z,56.33
2017-12-28T17:42:12.092Z,48.37
2017-12-28T17:44:39.691Z,49.77
2017-12-28T17:47:07.212Z,42.23
2017-12-28T17:49:34.693Z,40.23
2017-12-28T17:52:02.291Z,49.10
2017-12-28T17:54:29.773Z,41.00
2017-12-28T17:56:57.326Z,41.17
2017-12-28T17:59:24.915Z,44.43
2017-12-28T18:01:52.405Z,42.57
2017-12-28T18:04:19.906Z,41.67
2017-12-28T18:06:47.495Z,41.83
2017-12-28T18:09:15.065Z,41.47
2017-12-28T18:11:42.615Z,43.80
2017-12-28T18:14:10.133Z,41.37
2017-12-28T18:16:37.625Z,41.93
2017-12-28T18:19:05.174Z,44.33
2017-12-28T18:21:32.754Z,40.73
2017-12-28T18:24:00.311Z,46.63
2017-12-28T18:26:27.875Z,41.07
2017-12-28T18:28:55.392Z,40.57
2017-12-28T18:31:22.943Z,42.37
2017-12-28T18:33:50.432Z,53.13
2017-12-28T18:36:18.035Z,44.73
2017-12-28T18:38:45.521Z,49.00
2017-12-28T18:41:13.010Z,48.57
2017-12-28T18:43:40.615Z,57.13
2017-12-28T18:46:08.110Z,52.93
2017-12-28T18:48:35.666Z,44.70
2017-12-28T18:51:03.182Z,48.60
2017-12-28T18:53:30.754Z,46.37
2017-12-28T18:55:58.248Z,46.60
2017-12-28T18:58:25.770Z,46.67
2017-12-28T19:00:53.330Z,49.27
2017-12-28T19:03:20.937Z,49.10
2017-12-28T19:05:48.450Z,44.53
2017-12-28T19:08:15.935Z,43.50
2017-12-28T19:10:43.484Z,44.07
2017-12-28T19:13:11.074Z,47.23
2017-12-28T19:15:38.626Z,47.20
2017-12-28T19:18:06.113Z,41.63
2017-12-28T19:20:33.630Z,46.57
2017-12-28T19:23:01.133Z,46.53
2017-12-28T19:25:28.687Z,38.20
2017-12-28T19:27:56.234Z,40.93
2017-12-28T19:30:23.784Z,42.57
2017-12-28T19:32:51.340Z,46.00
2017-12-28T19:35:18.927Z,41.23
2017-12-28T19:37:46.417Z,44.27
2017-12-28T19:40:13.976Z,36.07
2017-12-28T19:42:41.569Z,41.00
2017-12-28T19:45:09.132Z,41.13
2017-12-28T19:47:36.616Z,47.93
2017-12-28T19:50:04.224Z,40.90
2017-12-28T19:52:31.709Z,44.97
2017-12-28T19:54:59.196Z,44.60
2017-12-28T19:57:26.718Z,33.10
2017-12-28T19:59:54.275Z,42.23
2017-12-28T20:02:21.765Z,34.57
2017-12-28T20:04:49.327Z,32.73
2017-12-28T20:07:16.887Z,36.17
2017-12-28T20:09:44.474Z,40.37
2017-12-28T20:12:11.965Z,32.30
2017-12-28T20:14:39.527Z,36.07
2017-12-28T20:17:07.115Z,44.33
2017-12-28T20:19:34.666Z,32.23
2017-12-28T20:22:02.219Z,28.43
2017-12-28T20:24:29.742Z,29.27
2017-12-28T20:26:57.294Z,32.10
2017-12-28T20:29:24.867Z,26.60
2017-12-28T20:31:52.381Z,31.03
2017-12-28T20:34:19.868Z,32.73
2017-12-28T20:36:47.359Z,34.13
2017-12-28T20:39:14.869Z,26.37
2017-12-28T20:41:42.352Z,31.53
2017-12-28T20:44:09.921Z,31.07
2017-12-28T20:46:37.519Z,26.97
2017-12-28T20:49:05.148Z,29.47
2017-12-28T20:51:32.740Z,23.13
2017-12-28T20:54:00.256Z,28.53
2017-12-28T20:56:27.744Z,27.97
2017-12-28T20:58:55.291Z,26.47
2017-12-28T21:01:22.874Z,25.23
2017-12-28T21:03:50.358Z,23.97
2017-12-28T21:06:17.851Z,27.03
2017-12-28T21:08:45.372Z,24.07
2017-12-28T21:11:12.929Z,24.93
2017-12-28T21:13:40.418Z,24.77
2017-12-28T21:16:07.933Z,23.33
2017-12-28T21:18:35.483Z,20.80
2017-12-28T21:21:03.106Z,23.13
2017-12-28T21:23:30.691Z,19.90
2017-12-28T21:25:59.260Z,21.43
2017-12-28T21:28:26.810Z,21.27
2017-12-28T21:30:54.329Z,26.83
2017-12-28T21:33:21.884Z,19.80
2017-12-28T21:35:49.366Z,20.27
2017-12-28T21:38:16.943Z,24.73
2017-12-28T21:40:44.425Z,21.07
2017-12-28T21:43:11.974Z,32.00
2017-12-28T21:45:39.485Z,19.83
2017-12-28T21:48:07.034Z,20.83
2017-12-28T21:50:34.517Z,15.83
2017-12-28T21:53:02.041Z,20.17
2017-12-28T21:55:29.531Z,17.77
2017-12-28T21:57:57.014Z,16.37
2017-12-28T22:00:24.532Z,18.20
2017-12-28T22:02:52.082Z,16.63
2017-12-28T22:05:19.631Z,16.37
2017-12-28T22:07:48.286Z,15.97
2017-12-28T22:10:15.839Z,16.50
2017-12-28T22:12:43.321Z,18.63
2017-12-28T22:15:10.829Z,14.90
2017-12-28T22:17:38.376Z,15.27
2017-12-28T22:20:05.926Z,17.17
2017-12-28T22:22:33.437Z,14.93
2017-12-28T22:25:00.992Z,14.87
2017-12-28T22:27:29.527Z,16.07
2017-12-28T22:29:57.046Z,15.53
2017-12-28T22:32:24.599Z,15.07
2017-12-28T22:34:52.073Z,11.90
2017-12-28T22:37:19.582Z,14.87
2017-12-28T22:39:47.132Z,13.43
2017-12-28T22:42:14.691Z,12.33
2017-12-28T22:44:42.266Z,14.07
2017-12-28T22:47:09.753Z,13.80
2017-12-28T22:49:37.229Z,13.27
2017-12-28T22:52:04.807Z,11.80
2017-12-28T22:54:32.290Z,13.07
2017-12-28T22:56:59.840Z,12.20
2017-12-28T22:59:27.361Z,16.13
2017-12-28T23:01:54.902Z,11.07
2017-12-28T23:04:22.378Z,13.63
2017-12-28T23:06:49.950Z,11.20
2017-12-28T23:09:17.499Z,10.20
2017-12-28T23:11:45.046Z,10.83
2017-12-28T23:14:12.557Z,10.10
2017-12-28T23:16:40.037Z,13.13
2017-12-28T23:19:07.585Z,12.20
2017-12-28T23:21:35.167Z,9.93
2017-12-28T23:24:02.642Z,9.00
2017-12-28T23:26:30.125Z,11.23
2017-12-28T23:28:57.641Z,10.50
2017-12-28T23:31:25.117Z,9.37
2017-12-28T23:33:52.606Z,12.20
2017-12-28T23:36:20.179Z,12.67
2017-12-28T23:38:47.657Z,10.87
2017-12-28T23:41:15.135Z,9.87
2017-12-28T23:43:42.715Z,10.93
2017-12-28T23:46:10.194Z,10.93
2017-12-28T23:48:37.738Z,10.60
2017-12-28T23:51:05.319Z,9.30
2017-12-28T23:53:32.861Z,10.50
2017-12-28T23:56:00.407Z,9.47
2017-12-28T23:58:27.984Z,9.03
